createdAt,value
2023-02-08T00:02:21.784Z,98071.41
2023-02-08T00:04:49.589Z,98073.63
2023-02-08T00:07:17.359Z,98067.59
2023-02-08T00:09:45.101Z,98060.78
2023-02-08T00:12:14.239Z,98070.34
2023-02-08T00:14:42.036Z,98067.13
2023-02-08T00:17:09.854Z,98064.75
2023-02-08T00:19:37.634Z,98054.00
2023-02-08T00:22:05.536Z,98057.72
2023-02-08T00:24:33.348Z,98055.78
2023-02-08T00:27:01.087Z,98048.22
2023-02-08T00:29:30.209Z,98052.03
2023-02-08T00:31:59.169Z,98050.69
2023-02-08T00:34:26.911Z,98047.09
2023-02-08T00:36:54.634Z,98047.56
2023-02-08T00:39:24.444Z,98038.53
2023-02-08T00:41:52.948Z,98044.47
2023-02-08T00:44:20.824Z,98038.13
2023-02-08T00:46:49.954Z,98033.06
2023-02-08T00:49:18.583Z,98038.06
2023-02-08T00:51:46.382Z,98038.78
2023-02-08T00:54:15.823Z,98043.28
2023-02-08T00:56:45.079Z,98043.56
2023-02-08T00:59:13.335Z,98035.53
2023-02-08T01:01:42.468Z,98036.50
2023-02-08T01:04:11.652Z,98036.81
2023-02-08T01:06:39.927Z,98041.41
2023-02-08T01:09:07.649Z,98047.03
2023-02-08T01:11:35.610Z,98050.16
2023-02-08T01:14:03.398Z,98045.06
2023-02-08T01:16:33.750Z,98051.59
2023-02-08T01:19:03.540Z,98057.94
2023-02-08T01:21:35.068Z,98046.91
2023-02-08T01:24:03.652Z,98056.00
2023-02-08T01:26:32.002Z,98044.97
2023-02-08T01:29:00.770Z,98044.09
2023-02-08T01:31:31.430Z,98052.13
2023-02-08T01:34:02.217Z,98048.16
2023-02-08T01:36:33.006Z,98056.53
2023-02-08T01:39:01.568Z,98053.66
2023-02-08T01:41:32.111Z,98043.31
2023-02-08T01:44:07.132Z,98039.03
2023-02-08T01:46:36.454Z,98040.03
2023-02-08T01:49:09.566Z,98037.69
2023-02-08T01:51:41.855Z,98032.56
2023-02-08T01:54:12.498Z,98034.25
2023-02-08T01:56:45.626Z,98033.66
2023-02-08T01:59:18.353Z,98036.59
2023-02-08T02:01:49.148Z,98024.72
2023-02-08T02:04:17.389Z,98032.75
2023-02-08T02:06:49.691Z,98036.22
2023-02-08T02:09:21.901Z,98037.84
2023-02-08T02:11:50.874Z,98036.22
2023-02-08T02:14:19.594Z,98032.94
2023-02-08T02:16:47.713Z,98024.88
2023-02-08T02:19:27.052Z,98020.25
2023-02-08T02:22:08.291Z,98020.44
2023-02-08T02:25:04.481Z,98019.78
2023-02-08T02:28:09.758Z,98019.25
2023-02-08T02:31:01.178Z,98019.44
2023-02-08T02:33:44.131Z,98015.81
2023-02-08T02:36:19.970Z,98021.09
2023-02-08T02:38:57.691Z,98019.31
2023-02-08T02:41:52.101Z,98018.47
2023-02-08T02:44:25.962Z,98027.75
2023-02-08T02:47:03.678Z,98021.66
2023-02-08T02:49:40.127Z,98030.03
2023-02-08T02:52:13.129Z,98032.03
2023-02-08T02:54:46.235Z,98027.59
2023-02-08T02:57:18.553Z,98027.59
2023-02-08T02:59:46.914Z,98030.06
2023-02-08T03:02:15.500Z,98028.31
2023-02-08T03:04:54.307Z,98024.69
2023-02-08T03:07:49.054Z,98020.22
2023-02-08T03:10:30.970Z,98027.84
2023-02-08T03:13:04.714Z,98016.47
2023-02-08T03:15:43.885Z,98009.41
2023-02-08T03:18:25.566Z,98017.13
2023-02-08T03:21:02.398Z,98012.53
2023-02-08T03:23:33.222Z,98018.66
2023-02-08T03:26:06.774Z,98010.09
2023-02-08T03:28:41.557Z,98008.41
2023-02-08T03:31:16.360Z,98005.94
2023-02-08T03:33:50.322Z,98013.69
2023-02-08T03:36:24.928Z,98004.00
2023-02-08T03:38:55.583Z,98005.63
2023-02-08T03:41:29.194Z,98003.00
2023-02-08T03:44:01.395Z,98007.09
2023-02-08T03:46:33.282Z,98005.31
2023-02-08T03:49:06.078Z,98008.09
2023-02-08T03:51:37.159Z,98007.28
2023-02-08T03:54:09.242Z,97994.81
2023-02-08T03:56:44.042Z,97996.75
2023-02-08T03:59:15.117Z,97995.94
2023-02-08T04:01:46.365Z,97999.38
2023-02-08T04:04:16.299Z,98000.91
2023-02-08T04:06:45.846Z,97998.56
2023-02-08T04:09:13.657Z,97997.94
2023-02-08T04:11:41.474Z,97985.75
2023-02-08T04:14:09.261Z,97996.31
2023-02-08T04:16:37.030Z,97990.06
2023-02-08T04:19:04.763Z,97983.44
2023-02-08T04:21:33.262Z,97990.03
2023-02-08T04:24:02.485Z,97985.06
2023-02-08T04:26:30.293Z,97978.59
2023-02-08T04:28:58.026Z,97981.81
2023-02-08T04:31:25.978Z,97969.59
2023-02-08T04:33:53.809Z,97980.69
2023-02-08T04:36:21.812Z,97975.56
2023-02-08T04:38:49.794Z,97977.34
2023-02-08T04:41:18.891Z,97963.69
2023-02-08T04:43:46.697Z,97964.03
2023-02-08T04:46:14.454Z,97957.78
2023-02-08T04:48:42.257Z,97965.31
2023-02-08T04:51:10.013Z,97966.00
2023-02-08T04:53:37.789Z,97956.59
2023-02-08T04:56:06.085Z,97954.13
2023-02-08T04:58:35.234Z,97955.78
2023-02-08T05:01:06.548Z,97952.31
2023-02-08T05:03:34.345Z,97953.78
2023-02-08T05:06:02.236Z,97957.59
2023-02-08T05:08:29.977Z,97947.88
2023-02-08T05:10:57.758Z,97959.25
2023-02-08T05:13:25.539Z,97958.44
2023-02-08T05:15:54.721Z,97955.47
2023-02-08T05:18:22.463Z,97959.41
2023-02-08T05:20:56.604Z,97955.78
2023-02-08T05:23:24.873Z,97953.47
2023-02-08T05:25:52.649Z,97965.16
2023-02-08T05:28:21.329Z,97956.41
2023-02-08T05:30:49.582Z,97965.69
2023-02-08T05:33:19.591Z,97954.31
2023-02-08T05:35:47.400Z,97950.84
2023-02-08T05:38:15.383Z,97957.78
2023-02-08T05:40:43.483Z,97950.53
2023-02-08T05:43:11.235Z,97960.94
2023-02-08T05:45:39.002Z,97962.91
2023-02-08T05:48:07.014Z,97960.94
2023-02-08T05:50:36.114Z,97965.03
2023-02-08T05:53:04.101Z,97971.16
2023-02-08T05:55:32.020Z,97966.84
2023-02-08T05:57:59.758Z,97966.22
2023-02-08T06:00:27.755Z,97974.63
2023-02-08T06:02:55.500Z,97977.41
2023-02-08T06:05:23.486Z,97971.69
2023-02-08T06:07:52.577Z,97970.50
2023-02-08T06:10:20.454Z,97971.31
2023-02-08T06:12:48.229Z,97977.25
2023-02-08T06:15:19.604Z,97982.16
2023-02-08T06:17:47.396Z,97980.34
2023-02-08T06:20:15.229Z,97979.19
2023-02-08T06:22:43.005Z,97975.44
2023-02-08T06:25:12.156Z,97986.31
2023-02-08T06:27:40.039Z,97979.22
2023-02-08T06:30:08.265Z,97971.00
2023-02-08T06:32:36.148Z,97970.50
2023-02-08T06:35:04.273Z,97973.81
2023-02-08T06:37:32.047Z,97977.47
2023-02-08T06:40:01.826Z,97986.03
2023-02-08T06:42:31.410Z,97983.06
2023-02-08T06:44:59.347Z,97981.09
2023-02-08T06:47:28.044Z,97975.84
2023-02-08T06:49:55.949Z,97975.78
2023-02-08T06:52:23.808Z,97986.34
2023-02-08T06:54:51.565Z,97978.94
2023-02-08T06:57:19.387Z,97978.78
2023-02-08T06:59:48.631Z,97982.56
2023-02-08T07:02:18.059Z,97983.69
2023-02-08T07:04:46.334Z,97977.47
2023-02-08T07:07:14.542Z,97986.19
2023-02-08T07:09:42.608Z,97987.84
2023-02-08T07:12:11.093Z,97995.72
2023-02-08T07:14:41.460Z,97997.88
2023-02-08T07:17:11.784Z,97989.47
2023-02-08T07:19:40.134Z,97992.41
2023-02-08T07:22:09.076Z,97980.56
2023-02-08T07:24:37.702Z,97986.50
2023-02-08T07:27:07.024Z,97991.09
2023-02-08T07:29:35.498Z,97988.66
2023-02-08T07:32:03.553Z,97983.03
2023-02-08T07:34:34.495Z,97972.13
2023-02-08T07:37:02.877Z,97982.84
2023-02-08T07:39:31.345Z,97983.97
2023-02-08T07:41:59.239Z,97989.34
2023-02-08T07:44:30.828Z,97985.06
2023-02-08T07:46:58.636Z,97979.75
2023-02-08T07:49:26.493Z,97986.63
2023-02-08T07:51:55.612Z,97986.56
2023-02-08T07:54:23.487Z,97993.63
2023-02-08T07:56:51.349Z,97980.53
2023-02-08T07:59:19.466Z,97987.41
2023-02-08T08:01:47.351Z,97994.81
2023-02-08T08:04:15.181Z,97998.41
2023-02-08T08:06:43.017Z,97996.53
2023-02-08T08:09:12.145Z,97986.72
2023-02-08T08:11:39.846Z,97995.94
2023-02-08T08:14:07.570Z,97998.34
2023-02-08T08:16:35.367Z,98002.91
2023-02-08T08:19:03.180Z,97998.09
2023-02-08T08:21:30.930Z,98000.31
2023-02-08T08:23:58.729Z,98003.59
2023-02-08T08:26:29.681Z,97995.44
2023-02-08T08:28:57.742Z,97993.50
2023-02-08T08:31:25.733Z,97993.81
2023-02-08T08:33:53.579Z,97989.78
2023-02-08T08:36:21.368Z,97990.34
2023-02-08T08:38:49.107Z,97990.09
2023-02-08T08:41:18.892Z,97981.41
2023-02-08T08:43:48.071Z,97979.50
2023-02-08T08:46:16.682Z,97988.16
2023-02-08T08:48:45.650Z,97992.91
2023-02-08T08:51:14.128Z,97993.44
2023-02-08T08:53:41.934Z,97986.59
2023-02-08T08:56:09.662Z,97985.03
2023-02-08T08:58:37.377Z,97981.47
2023-02-08T09:01:06.789Z,97981.09
2023-02-08T09:03:34.980Z,97982.44
2023-02-08T09:06:02.801Z,97980.88
2023-02-08T09:08:30.567Z,97979.28
2023-02-08T09:10:58.353Z,97973.69
2023-02-08T09:13:26.086Z,97980.91
2023-02-08T09:15:53.857Z,97976.22
2023-02-08T09:18:23.038Z,97980.59
2023-02-08T09:20:50.790Z,97981.44
2023-02-08T09:23:18.567Z,97974.56
2023-02-08T09:25:46.815Z,97977.53
2023-02-08T09:28:15.660Z,97984.56
2023-02-08T09:30:44.011Z,97993.00
2023-02-08T09:33:11.999Z,97988.16
2023-02-08T09:35:41.364Z,97986.06
2023-02-08T09:38:09.318Z,97985.72
2023-02-08T09:40:46.637Z,97983.94
2023-02-08T09:43:23.314Z,97990.25
2023-02-08T09:46:00.258Z,97990.25
2023-02-08T09:48:32.587Z,97990.28
2023-02-08T09:51:08.246Z,97987.50
2023-02-08T09:53:40.279Z,97975.94
2023-02-08T09:56:12.776Z,97979.03
2023-02-08T09:58:44.022Z,97970.66
2023-02-08T10:01:19.167Z,97971.53
2023-02-08T10:03:48.104Z,97961.69
2023-02-08T10:06:19.024Z,97965.22
2023-02-08T10:08:49.619Z,97967.91
2023-02-08T10:11:36.164Z,97958.38
2023-02-08T10:14:24.608Z,97956.38
2023-02-08T10:17:01.311Z,97960.50
2023-02-08T10:19:41.082Z,97958.69
2023-02-08T10:22:27.138Z,97956.91
2023-02-08T10:25:17.696Z,97955.31
2023-02-08T10:27:57.769Z,97955.53
2023-02-08T10:30:40.946Z,97958.78
2023-02-08T10:33:17.893Z,97955.50
2023-02-08T10:35:48.491Z,97953.03
2023-02-08T10:38:29.654Z,97954.09
2023-02-08T10:41:05.401Z,97957.78
2023-02-08T10:43:40.419Z,97947.34
2023-02-08T10:46:17.312Z,97963.13
2023-02-08T10:48:56.283Z,97966.84
2023-02-08T10:51:24.055Z,97955.81
2023-02-08T10:53:54.826Z,97953.78
2023-02-08T10:56:45.467Z,97938.25
2023-02-08T10:59:18.376Z,97942.75
2023-02-08T11:01:48.203Z,97947.25
2023-02-08T11:04:16.788Z,97936.19
2023-02-08T11:06:46.974Z,97921.47
2023-02-08T11:09:28.959Z,97922.72
2023-02-08T11:11:58.793Z,97935.00
2023-02-08T11:14:45.434Z,97930.91
2023-02-08T11:17:26.986Z,97937.03
2023-02-08T11:19:55.498Z,97940.50
2023-02-08T11:22:27.601Z,97934.16
2023-02-08T11:25:00.082Z,97945.22
2023-02-08T11:27:33.442Z,97926.78
2023-02-08T11:30:23.510Z,97928.00
2023-02-08T11:33:19.453Z,97927.81
2023-02-08T11:36:14.270Z,97933.13
2023-02-08T11:38:43.857Z,97931.06
2023-02-08T11:41:19.919Z,97919.00
2023-02-08T11:43:58.706Z,97922.50
2023-02-08T11:46:28.621Z,97902.59
2023-02-08T11:48:57.336Z,97903.84
2023-02-08T11:51:28.979Z,97907.75
2023-02-08T11:53:58.090Z,97895.66
2023-02-08T11:56:29.631Z,97896.03
2023-02-08T11:58:59.699Z,97895.63
2023-02-08T12:01:30.117Z,97888.22
2023-02-08T12:04:00.928Z,97889.88
2023-02-08T12:06:45.638Z,97880.00
2023-02-08T12:09:28.209Z,97880.81
2023-02-08T12:12:10.876Z,97879.97
2023-02-08T12:14:52.798Z,97879.78
2023-02-08T12:17:39.853Z,97871.16
2023-02-08T12:20:34.649Z,97862.53
2023-02-08T12:23:21.239Z,97870.28
2023-02-08T12:25:57.788Z,97864.72
2023-02-08T12:28:43.476Z,97857.31
2023-02-08T12:31:20.486Z,97859.16
2023-02-08T12:33:59.563Z,97849.06
2023-02-08T12:36:45.798Z,97842.69
2023-02-08T12:39:45.232Z,97831.44
2023-02-08T12:42:26.896Z,97832.69
2023-02-08T12:45:25.868Z,97829.78
2023-02-08T12:48:05.150Z,97839.16
2023-02-08T12:50:42.007Z,97821.47
2023-02-08T12:53:18.803Z,97821.00
2023-02-08T12:55:49.853Z,97810.34
2023-02-08T12:58:29.102Z,97809.13
2023-02-08T13:01:03.100Z,97813.47
2023-02-08T13:03:37.580Z,97801.94
2023-02-08T13:06:09.450Z,97796.19
2023-02-08T13:08:42.072Z,97796.84
2023-02-08T13:11:20.050Z,97792.06
2023-02-08T13:13:57.991Z,97794.91
2023-02-08T13:16:33.966Z,97800.63
2023-02-08T13:19:24.987Z,97788.19
2023-02-08T13:21:55.017Z,97786.38
2023-02-08T13:24:37.515Z,97794.66
2023-02-08T13:27:07.333Z,97785.78
2023-02-08T13:29:36.261Z,97776.84
2023-02-08T13:32:10.930Z,97772.72
2023-02-08T13:34:44.650Z,97772.31
2023-02-08T13:37:26.767Z,97771.25
2023-02-08T13:40:03.919Z,97771.09
2023-02-08T13:42:37.099Z,97760.44
2023-02-08T13:45:07.320Z,97770.69
2023-02-08T13:47:44.774Z,97759.13
2023-02-08T13:50:41.152Z,97769.72
2023-02-08T13:53:09.422Z,97762.13
2023-02-08T13:55:45.895Z,97770.94
2023-02-08T13:58:37.325Z,97762.94
2023-02-08T14:01:24.219Z,97756.00
2023-02-08T14:04:29.373Z,97761.16
2023-02-08T14:07:02.258Z,97762.78
2023-02-08T14:09:43.965Z,97764.63
2023-02-08T14:12:17.058Z,97752.53
2023-02-08T14:14:44.852Z,97756.47
2023-02-08T14:17:21.001Z,97752.78
2023-02-08T14:20:00.756Z,97752.53
2023-02-08T14:22:33.316Z,97756.03
2023-02-08T14:25:03.878Z,97759.31
2023-02-08T14:27:37.823Z,97762.97
2023-02-08T14:30:09.224Z,97756.84
2023-02-08T14:32:39.729Z,97756.66
2023-02-08T14:35:19.017Z,97756.47
2023-02-08T14:37:46.789Z,97757.94
2023-02-08T14:40:48.041Z,97750.41
2023-02-08T14:43:34.075Z,97752.91
2023-02-08T14:46:41.969Z,97759.47
2023-02-08T14:49:12.973Z,97754.78
2023-02-08T14:51:46.381Z,97754.84
2023-02-08T14:54:23.004Z,97750.59
2023-02-08T14:56:58.353Z,97752.84
2023-02-08T14:59:29.684Z,97748.97
2023-02-08T15:02:00.943Z,97752.28
2023-02-08T15:04:29.401Z,97758.03
2023-02-08T15:07:31.293Z,97756.84
2023-02-08T15:10:04.435Z,97753.59
2023-02-08T15:12:35.846Z,97750.53
2023-02-08T15:15:05.907Z,97755.63
2023-02-08T15:17:37.805Z,97756.50
2023-02-08T15:20:08.392Z,97752.19
2023-02-08T15:22:39.832Z,97751.22
2023-02-08T15:25:26.248Z,97751.63
2023-02-08T15:27:56.892Z,97762.31
2023-02-08T15:30:26.576Z,97776.59
2023-02-08T15:32:54.796Z,97769.69
2023-02-08T15:35:24.187Z,97766.63
2023-02-08T15:37:54.331Z,97763.19
2023-02-08T15:40:28.667Z,97770.13
2023-02-08T15:43:03.067Z,97769.94
2023-02-08T15:45:31.205Z,97774.47
2023-02-08T15:47:59.821Z,97757.50
2023-02-08T15:50:29.689Z,97763.22
2023-02-08T15:53:01.457Z,97763.66
2023-02-08T15:55:34.482Z,97757.09
2023-02-08T15:58:07.081Z,97771.84
2023-02-08T16:00:38.219Z,97771.19
2023-02-08T16:03:16.974Z,97767.34
2023-02-08T16:05:51.232Z,97772.25
2023-02-08T16:08:27.810Z,97772.88
2023-02-08T16:10:59.940Z,97779.63
2023-02-08T16:13:36.947Z,97778.38
2023-02-08T16:16:17.858Z,97776.13
2023-02-08T16:18:50.858Z,97782.88
2023-02-08T16:21:31.020Z,97778.38
2023-02-08T16:24:01.625Z,97776.53
2023-02-08T16:26:35.846Z,97770.41
2023-02-08T16:29:06.109Z,97766.97
2023-02-08T16:31:36.660Z,97756.75
2023-02-08T16:34:22.715Z,97764.69
2023-02-08T16:36:56.084Z,97758.78
2023-02-08T16:39:53.513Z,97759.78
2023-02-08T16:42:39.351Z,97763.88
2023-02-08T16:45:25.034Z,97761.44
2023-02-08T16:47:56.761Z,97766.75
2023-02-08T16:50:27.033Z,97762.25
2023-02-08T16:52:57.266Z,97759.41
2023-02-08T16:55:29.300Z,97746.72
2023-02-08T16:57:59.158Z,97755.28
2023-02-08T17:00:31.777Z,97759.56
2023-02-08T17:02:59.904Z,97758.97
2023-02-08T17:05:30.615Z,97755.28
2023-02-08T17:08:01.002Z,97756.31
2023-02-08T17:10:33.988Z,97755.47
2023-02-08T17:13:19.830Z,97765.25
2023-02-08T17:15:50.731Z,97772.22
2023-02-08T17:18:21.906Z,97768.13
2023-02-08T17:20:49.693Z,97771.41
2023-02-08T17:23:17.566Z,97766.28
2023-02-08T17:25:51.411Z,97765.03
2023-02-08T17:28:22.113Z,97764.22
2023-02-08T17:30:50.836Z,97765.66
2023-02-08T17:33:21.370Z,97761.56
2023-02-08T17:35:51.253Z,97765.84
2023-02-08T17:38:19.409Z,97769.50
2023-02-08T17:40:48.738Z,97770.09
2023-02-08T17:43:16.886Z,97775.22
2023-02-08T17:45:45.626Z,97769.28
2023-02-08T17:48:14.551Z,97775.63
2023-02-08T17:50:43.836Z,97773.34
2023-02-08T17:53:13.925Z,97775.19
2023-02-08T17:55:43.400Z,97786.00
2023-02-08T17:58:13.380Z,97778.22
2023-02-08T18:00:41.566Z,97783.72
2023-02-08T18:03:13.351Z,97779.63
2023-02-08T18:05:41.169Z,97785.13
2023-02-08T18:08:09.027Z,97777.94
2023-02-08T18:10:36.838Z,97780.00
2023-02-08T18:13:04.693Z,97783.84
2023-02-08T18:15:35.224Z,97778.50
2023-02-08T18:18:03.229Z,97780.16
2023-02-08T18:20:32.024Z,97770.94
2023-02-08T18:22:59.793Z,97768.88
2023-02-08T18:25:27.667Z,97764.81
2023-02-08T18:27:56.863Z,97766.59
2023-02-08T18:30:25.547Z,97760.69
2023-02-08T18:32:54.734Z,97759.81
2023-02-08T18:35:22.590Z,97750.00
2023-02-08T18:37:50.362Z,97751.78
2023-02-08T18:40:18.787Z,97760.72
2023-02-08T18:42:48.796Z,97753.16
2023-02-08T18:45:16.522Z,97754.38
2023-02-08T18:47:45.317Z,97745.41
2023-02-08T18:50:14.518Z,97748.91
2023-02-08T18:52:42.348Z,97747.66
2023-02-08T18:55:10.206Z,97752.16
2023-02-08T18:57:39.852Z,97754.19
2023-02-08T19:00:08.650Z,97750.50
2023-02-08T19:02:38.628Z,97748.59
2023-02-08T19:05:08.233Z,97745.78
2023-02-08T19:07:38.729Z,97742.09
2023-02-08T19:10:07.791Z,97742.09
2023-02-08T19:12:38.356Z,97747.25
2023-02-08T19:15:06.765Z,97750.13
2023-02-08T19:17:34.523Z,97741.16
2023-02-08T19:20:03.715Z,97744.09
2023-02-08T19:22:31.515Z,97744.69
2023-02-08T19:25:00.642Z,97743.88
2023-02-08T19:27:29.541Z,97744.28
2023-02-08T19:29:57.486Z,97749.16
2023-02-08T19:32:25.241Z,97729.16
2023-02-08T19:34:52.944Z,97742.59
2023-02-08T19:37:20.906Z,97739.91
2023-02-08T19:39:48.908Z,97739.69
2023-02-08T19:42:18.077Z,97728.88
2023-02-08T19:44:45.872Z,97726.59
2023-02-08T19:47:15.848Z,97733.94
2023-02-08T19:49:43.696Z,97737.97
2023-02-08T19:52:11.551Z,97733.88
2023-02-08T19:54:39.271Z,97735.06
2023-02-08T19:57:11.539Z,97745.44
2023-02-08T19:59:40.947Z,97736.59
2023-02-08T20:02:12.224Z,97748.00
2023-02-08T20:04:40.802Z,97742.91
2023-02-08T20:07:09.384Z,97748.19
2023-02-08T20:09:37.249Z,97743.03
2023-02-08T20:12:05.425Z,97740.94
2023-02-08T20:14:34.510Z,97744.00
2023-02-08T20:17:04.086Z,97739.44
2023-02-08T20:19:31.925Z,97738.00
2023-02-08T20:21:59.631Z,97740.00
2023-02-08T20:24:27.501Z,97730.44
2023-02-08T20:26:55.289Z,97729.06
2023-02-08T20:29:23.110Z,97739.63
2023-02-08T20:31:55.505Z,97728.81
2023-02-08T20:34:25.215Z,97735.72
2023-02-08T20:37:06.452Z,97725.28
2023-02-08T20:39:35.650Z,97725.66
2023-02-08T20:42:05.298Z,97729.25
2023-02-08T20:44:33.404Z,97723.13
2023-02-08T20:47:01.372Z,97731.69
2023-02-08T20:49:32.177Z,97734.09
2023-02-08T20:52:00.029Z,97736.91
2023-02-08T20:54:30.272Z,97726.53
2023-02-08T20:56:58.814Z,97729.56
2023-02-08T20:59:26.566Z,97728.94
2023-02-08T21:01:54.720Z,97732.75
2023-02-08T21:04:23.787Z,97734.59
2023-02-08T21:06:53.192Z,97728.38
2023-02-08T21:09:21.752Z,97736.06
2023-02-08T21:11:50.842Z,97739.47
2023-02-08T21:14:20.829Z,97738.19
2023-02-08T21:16:51.272Z,97732.84
2023-02-08T21:19:20.623Z,97731.84
2023-02-08T21:21:51.462Z,97730.03
2023-02-08T21:24:21.265Z,97737.84
2023-02-08T21:26:49.044Z,97732.03
2023-02-08T21:29:17.068Z,97726.69
2023-02-08T21:31:45.488Z,97727.22
2023-02-08T21:34:13.781Z,97728.94
2023-02-08T21:36:41.601Z,97728.13
2023-02-08T21:39:09.704Z,97723.88
2023-02-08T21:41:38.939Z,97728.69
2023-02-08T21:44:10.530Z,97717.31
2023-02-08T21:46:39.577Z,97717.66
2023-02-08T21:49:25.462Z,97723.13
2023-02-08T21:52:10.521Z,97709.28
2023-02-08T21:54:45.470Z,97708.44
2023-02-08T21:57:18.766Z,97701.34
2023-02-08T21:59:47.917Z,97706.06
2023-02-08T22:02:21.695Z,97702.81
2023-02-08T22:04:50.174Z,97699.72
2023-02-08T22:07:18.315Z,97699.06
2023-02-08T22:09:46.188Z,97693.97
2023-02-08T22:12:17.657Z,97693.50
2023-02-08T22:14:45.527Z,97703.22
2023-02-08T22:17:13.590Z,97698.50
2023-02-08T22:19:42.871Z,97697.03
2023-02-08T22:22:14.379Z,97696.38
2023-02-08T22:24:42.634Z,97696.38
2023-02-08T22:27:10.791Z,97697.09
2023-02-08T22:29:40.101Z,97697.66
2023-02-08T22:32:09.842Z,97696.53
2023-02-08T22:34:38.183Z,97690.28
2023-02-08T22:37:05.986Z,97681.72
2023-02-08T22:39:34.167Z,97687.69
2023-02-08T22:42:03.304Z,97691.31
2023-02-08T22:44:31.122Z,97686.88
2023-02-08T22:47:02.147Z,97688.88
2023-02-08T22:49:30.706Z,97689.94
2023-02-08T22:51:59.707Z,97689.00
2023-02-08T22:54:27.870Z,97685.72
2023-02-08T22:56:55.677Z,97677.81
2023-02-08T22:59:23.453Z,97678.94
2023-02-08T23:01:51.301Z,97671.75
2023-02-08T23:04:20.455Z,97674.72
2023-02-08T23:06:48.536Z,97667.09
2023-02-08T23:09:16.284Z,97670.97
2023-02-08T23:11:44.143Z,97681.38
2023-02-08T23:14:11.993Z,97668.06
2023-02-08T23:16:39.731Z,97670.31
2023-02-08T23:19:07.523Z,97670.03
2023-02-08T23:21:38.955Z,97674.47
2023-02-08T23:24:07.895Z,97676.81
2023-02-08T23:26:35.886Z,97680.09
2023-02-08T23:29:03.759Z,97674.81
2023-02-08T23:31:31.797Z,97666.75
2023-02-08T23:34:00.305Z,97669.88
2023-02-08T23:36:28.808Z,97670.69
2023-02-08T23:39:00.542Z,97665.38
2023-02-08T23:41:29.309Z,97667.06
2023-02-08T23:43:58.003Z,97665.44
2023-02-08T23:46:28.127Z,97668.06
2023-02-08T23:48:56.379Z,97659.50
2023-02-08T23:51:25.914Z,97669.06
2023-02-08T23:53:56.092Z,97672.16
2023-02-08T23:56:26.634Z,97670.03
2023-02-08T23:58:56.022Z,97672.66
